sensor_id;sensor_type;location;lat;lon;timestamp;temperature;humidity
5457;DHT22;2751;49.802;9.944;2023-07-02T00:01:49;18.30;99.90
5457;DHT22;2751;49.802;9.944;2023-07-02T00:04:17;18.20;99.90
5457;DHT22;2751;49.802;9.944;2023-07-02T00:06:46;18.20;99.90
5457;DHT22;2751;49.802;9.944;2023-07-02T00:09:14;18.10;1.00
5457;DHT22;2751;49.802;9.944;2023-07-02T00:11:43;18.10;1.00
5457;DHT22;2751;49.802;9.944;2023-07-02T00:14:11;18.10;1.00
5457;DHT22;2751;49.802;9.944;2023-07-02T00:16:43;18.10;1.00
5457;DHT22;2751;49.802;9.944;2023-07-02T00:19:10;18.10;58.80
5457;DHT22;2751;49.802;9.944;2023-07-02T00:21:37;18.10;99.90
5457;DHT22;2751;49.802;9.944;2023-07-02T00:24:06;18.00;1.00
5457;DHT22;2751;49.802;9.944;2023-07-02T00:26:35;18.00;1.00
5457;DHT22;2751;49.802;9.944;2023-07-02T00:29:03;18.00;1.00
5457;DHT22;2751;49.802;9.944;2023-07-02T00:31:31;18.00;23.50
5457;DHT22;2751;49.802;9.944;2023-07-02T00:34:00;18.00;99.90
5457;DHT22;2751;49.802;9.944;2023-07-02T00:36:28;18.00;1.00
5457;DHT22;2751;49.802;9.944;2023-07-02T00:38:55;18.10;36.10
5457;DHT22;2751;49.802;9.944;2023-07-02T00:41:22;18.10;1.00
5457;DHT22;2751;49.802;9.944;2023-07-02T00:43:49;18.10;99.90
5457;DHT22;2751;49.802;9.944;2023-07-02T00:46:20;18.10;1.00
5457;DHT22;2751;49.802;9.944;2023-07-02T00:48:49;18.10;1.00
5457;DHT22;2751;49.802;9.944;2023-07-02T00:51:18;18.20;99.90
5457;DHT22;2751;49.802;9.944;2023-07-02T00:53:47;18.30;93.90
5457;DHT22;2751;49.802;9.944;2023-07-02T00:56:14;18.30;1.00
5457;DHT22;2751;49.802;9.944;2023-07-02T00:58:43;18.40;99.90
5457;DHT22;2751;49.802;9.944;2023-07-02T01:01:12;18.40;99.90
5457;DHT22;2751;49.802;9.944;2023-07-02T01:03:49;18.40;99.90
5457;DHT22;2751;49.802;9.944;2023-07-02T01:06:23;18.40;26.90
5457;DHT22;2751;49.802;9.944;2023-07-02T01:08:53;18.30;6.10
5457;DHT22;2751;49.802;9.944;2023-07-02T01:11:22;18.30;1.00
5457;DHT22;2751;49.802;9.944;2023-07-02T01:13:51;18.20;1.00
5457;DHT22;2751;49.802;9.944;2023-07-02T01:16:18;18.20;1.00
5457;DHT22;2751;49.802;9.944;2023-07-02T01:18:46;18.20;1.00
5457;DHT22;2751;49.802;9.944;2023-07-02T01:21:14;18.20;1.00
5457;DHT22;2751;49.802;9.944;2023-07-02T01:23:41;18.20;1.00
5457;DHT22;2751;49.802;9.944;2023-07-02T01:26:08;18.10;1.00
5457;DHT22;2751;49.802;9.944;2023-07-02T01:28:35;18.10;39.90
5457;DHT22;2751;49.802;9.944;2023-07-02T01:31:04;18.10;1.00
5457;DHT22;2751;49.802;9.944;2023-07-02T01:33:31;18.10;99.90
5457;DHT22;2751;49.802;9.944;2023-07-02T01:35:58;18.10;99.90
5457;DHT22;2751;49.802;9.944;2023-07-02T01:38:26;18.00;99.90
5457;DHT22;2751;49.802;9.944;2023-07-02T01:40:53;18.00;99.90
5457;DHT22;2751;49.802;9.944;2023-07-02T01:43:20;18.00;1.00
5457;DHT22;2751;49.802;9.944;2023-07-02T01:45:48;18.00;1.00
5457;DHT22;2751;49.802;9.944;2023-07-02T01:48:15;18.00;99.90
5457;DHT22;2751;49.802;9.944;2023-07-02T01:50:42;18.00;99.90
5457;DHT22;2751;49.802;9.944;2023-07-02T01:53:09;18.00;99.90
5457;DHT22;2751;49.802;9.944;2023-07-02T01:55:37;18.00;99.90
5457;DHT22;2751;49.802;9.944;2023-07-02T01:58:04;17.90;99.90
5457;DHT22;2751;49.802;9.944;2023-07-02T02:00:31;17.90;99.90
5457;DHT22;2751;49.802;9.944;2023-07-02T02:02:58;17.90;99.90
5457;DHT22;2751;49.802;9.944;2023-07-02T02:05:25;17.80;99.90
5457;DHT22;2751;49.802;9.944;2023-07-02T02:07:51;17.80;99.90
5457;DHT22;2751;49.802;9.944;2023-07-02T02:10:18;17.80;99.90
5457;DHT22;2751;49.802;9.944;2023-07-02T02:12:47;17.90;1.00
5457;DHT22;2751;49.802;9.944;2023-07-02T02:15:13;17.80;1.00
5457;DHT22;2751;49.802;9.944;2023-07-02T02:17:40;17.80;1.00
5457;DHT22;2751;49.802;9.944;2023-07-02T02:20:08;17.80;1.00
5457;DHT22;2751;49.802;9.944;2023-07-02T02:22:35;17.80;1.00
5457;DHT22;2751;49.802;9.944;2023-07-02T02:25:03;17.70;1.00
5457;DHT22;2751;49.802;9.944;2023-07-02T02:27:30;17.70;1.00
5457;DHT22;2751;49.802;9.944;2023-07-02T02:29:59;17.70;1.00
5457;DHT22;2751;49.802;9.944;2023-07-02T02:32:26;17.60;1.00
5457;DHT22;2751;49.802;9.944;2023-07-02T02:34:53;17.50;1.00
5457;DHT22;2751;49.802;9.944;2023-07-02T02:37:20;17.40;1.00
5457;DHT22;2751;49.802;9.944;2023-07-02T02:39:48;17.30;5.50
5457;DHT22;2751;49.802;9.944;2023-07-02T02:42:16;17.30;99.90
5457;DHT22;2751;49.802;9.944;2023-07-02T02:44:42;17.20;99.90
5457;DHT22;2751;49.802;9.944;2023-07-02T02:47:11;17.20;99.90
5457;DHT22;2751;49.802;9.944;2023-07-02T02:49:38;17.10;99.90
5457;DHT22;2751;49.802;9.944;2023-07-02T02:52:05;16.80;99.90
5457;DHT22;2751;49.802;9.944;2023-07-02T02:54:32;17.00;1.00
5457;DHT22;2751;49.802;9.944;2023-07-02T02:56:59;17.30;99.90
5457;DHT22;2751;49.802;9.944;2023-07-02T02:59:26;17.00;99.90
5457;DHT22;2751;49.802;9.944;2023-07-02T03:01:53;16.90;99.90
5457;DHT22;2751;49.802;9.944;2023-07-02T03:04:21;16.90;99.90
5457;DHT22;2751;49.802;9.944;2023-07-02T03:06:50;16.80;99.90
5457;DHT22;2751;49.802;9.944;2023-07-02T03:09:18;16.80;88.70
5457;DHT22;2751;49.802;9.944;2023-07-02T03:11:46;16.80;1.00
5457;DHT22;2751;49.802;9.944;2023-07-02T03:14:13;16.70;19.80
5457;DHT22;2751;49.802;9.944;2023-07-02T03:16:40;16.60;16.30
5457;DHT22;2751;49.802;9.944;2023-07-02T03:19:07;16.60;1.00
5457;DHT22;2751;49.802;9.944;2023-07-02T03:21:35;16.60;1.00
5457;DHT22;2751;49.802;9.944;2023-07-02T03:24:02;16.60;1.00
5457;DHT22;2751;49.802;9.944;2023-07-02T03:26:29;16.50;1.00
5457;DHT22;2751;49.802;9.944;2023-07-02T03:28:56;16.50;1.00
5457;DHT22;2751;49.802;9.944;2023-07-02T03:31:23;16.50;1.00
5457;DHT22;2751;49.802;9.944;2023-07-02T03:33:50;16.50;1.00
5457;DHT22;2751;49.802;9.944;2023-07-02T03:36:17;16.40;1.00
5457;DHT22;2751;49.802;9.944;2023-07-02T03:38:45;16.40;1.00
5457;DHT22;2751;49.802;9.944;2023-07-02T03:41:12;16.40;1.00
5457;DHT22;2751;49.802;9.944;2023-07-02T03:43:39;16.40;1.00
5457;DHT22;2751;49.802;9.944;2023-07-02T03:46:06;16.30;19.10
5457;DHT22;2751;49.802;9.944;2023-07-02T03:48:33;16.30;92.60
5457;DHT22;2751;49.802;9.944;2023-07-02T03:51:01;16.30;99.90
5457;DHT22;2751;49.802;9.944;2023-07-02T03:53:28;16.30;99.90
5457;DHT22;2751;49.802;9.944;2023-07-02T03:55:56;16.20;99.90
5457;DHT22;2751;49.802;9.944;2023-07-02T03:58:23;16.20;99.90
5457;DHT22;2751;49.802;9.944;2023-07-02T04:00:50;16.20;99.90
5457;DHT22;2751;49.802;9.944;2023-07-02T04:03:17;16.20;99.90
5457;DHT22;2751;49.802;9.944;2023-07-02T04:05:44;16.20;1.00
5457;DHT22;2751;49.802;9.944;2023-07-02T04:08:11;16.20;1.00
5457;DHT22;2751;49.802;9.944;2023-07-02T04:10:38;16.20;1.00
5457;DHT22;2751;49.802;9.944;2023-07-02T04:13:06;16.20;1.00
5457;DHT22;2751;49.802;9.944;2023-07-02T04:15:35;16.20;1.00
5457;DHT22;2751;49.802;9.944;2023-07-02T04:18:02;16.20;1.00
5457;DHT22;2751;49.802;9.944;2023-07-02T04:20:29;16.20;1.00
5457;DHT22;2751;49.802;9.944;2023-07-02T04:22:55;16.30;1.00
5457;DHT22;2751;49.802;9.944;2023-07-02T04:25:23;16.30;1.00
5457;DHT22;2751;49.802;9.944;2023-07-02T04:27:50;16.40;23.70
5457;DHT22;2751;49.802;9.944;2023-07-02T04:30:23;16.40;1.00
5457;DHT22;2751;49.802;9.944;2023-07-02T04:32:50;16.50;99.90
5457;DHT22;2751;49.802;9.944;2023-07-02T04:35:17;16.50;99.90
5457;DHT22;2751;49.802;9.944;2023-07-02T04:37:44;16.60;99.90
5457;DHT22;2751;49.802;9.944;2023-07-02T04:40:11;16.70;99.90
5457;DHT22;2751;49.802;9.944;2023-07-02T04:42:41;16.80;1.00
5457;DHT22;2751;49.802;9.944;2023-07-02T04:45:13;16.80;1.00
5457;DHT22;2751;49.802;9.944;2023-07-02T04:47:42;16.80;1.00
5457;DHT22;2751;49.802;9.944;2023-07-02T04:50:10;16.90;1.00
5457;DHT22;2751;49.802;9.944;2023-07-02T04:52:37;16.90;1.00
5457;DHT22;2751;49.802;9.944;2023-07-02T04:55:05;16.90;1.00
5457;DHT22;2751;49.802;9.944;2023-07-02T04:57:32;16.90;1.00
5457;DHT22;2751;49.802;9.944;2023-07-02T04:59:59;17.00;1.00
5457;DHT22;2751;49.802;9.944;2023-07-02T05:02:26;17.00;1.00
5457;DHT22;2751;49.802;9.944;2023-07-02T05:04:54;17.10;1.00
5457;DHT22;2751;49.802;9.944;2023-07-02T05:07:21;17.20;1.00
5457;DHT22;2751;49.802;9.944;2023-07-02T05:09:48;17.30;1.00
5457;DHT22;2751;49.802;9.944;2023-07-02T05:12:17;17.40;1.00
5457;DHT22;2751;49.802;9.944;2023-07-02T05:14:44;17.50;1.00
5457;DHT22;2751;49.802;9.944;2023-07-02T05:17:11;17.70;1.00
5457;DHT22;2751;49.802;9.944;2023-07-02T05:19:39;17.80;1.00
5457;DHT22;2751;49.802;9.944;2023-07-02T05:22:07;17.80;1.00
5457;DHT22;2751;49.802;9.944;2023-07-02T05:24:34;17.70;1.00
5457;DHT22;2751;49.802;9.944;2023-07-02T05:27:01;17.70;1.00
5457;DHT22;2751;49.802;9.944;2023-07-02T05:29:28;17.70;1.00
5457;DHT22;2751;49.802;9.944;2023-07-02T05:31:55;17.60;1.00
5457;DHT22;2751;49.802;9.944;2023-07-02T05:34:22;17.80;1.00
5457;DHT22;2751;49.802;9.944;2023-07-02T05:36:49;17.90;1.00
5457;DHT22;2751;49.802;9.944;2023-07-02T05:39:17;17.90;1.00
5457;DHT22;2751;49.802;9.944;2023-07-02T05:41:44;17.80;1.00
5457;DHT22;2751;49.802;9.944;2023-07-02T05:44:11;17.90;1.00
5457;DHT22;2751;49.802;9.944;2023-07-02T05:46:37;17.40;1.00
5457;DHT22;2751;49.802;9.944;2023-07-02T05:49:06;17.80;1.00
5457;DHT22;2751;49.802;9.944;2023-07-02T05:51:33;17.80;1.00
5457;DHT22;2751;49.802;9.944;2023-07-02T05:53:59;17.90;1.00
5457;DHT22;2751;49.802;9.944;2023-07-02T05:56:28;17.90;1.00
5457;DHT22;2751;49.802;9.944;2023-07-02T05:58:54;18.00;1.00
5457;DHT22;2751;49.802;9.944;2023-07-02T06:01:21;18.10;1.00
5457;DHT22;2751;49.802;9.944;2023-07-02T06:03:49;18.20;1.00
5457;DHT22;2751;49.802;9.944;2023-07-02T06:06:16;18.20;1.00
5457;DHT22;2751;49.802;9.944;2023-07-02T06:08:43;18.30;1.00
5457;DHT22;2751;49.802;9.944;2023-07-02T06:11:10;18.30;1.00
5457;DHT22;2751;49.802;9.944;2023-07-02T06:13:38;18.30;1.00
5457;DHT22;2751;49.802;9.944;2023-07-02T06:16:05;18.30;1.00
5457;DHT22;2751;49.802;9.944;2023-07-02T06:18:32;18.40;1.00
5457;DHT22;2751;49.802;9.944;2023-07-02T06:20:59;18.50;1.00
5457;DHT22;2751;49.802;9.944;2023-07-02T06:23:26;18.60;1.00
5457;DHT22;2751;49.802;9.944;2023-07-02T06:25:53;18.60;1.00
5457;DHT22;2751;49.802;9.944;2023-07-02T06:28:24;18.60;1.00
5457;DHT22;2751;49.802;9.944;2023-07-02T06:30:53;18.60;1.00
5457;DHT22;2751;49.802;9.944;2023-07-02T06:33:20;18.70;1.00
5457;DHT22;2751;49.802;9.944;2023-07-02T06:35:46;18.90;1.00
5457;DHT22;2751;49.802;9.944;2023-07-02T06:38:14;19.10;1.00
5457;DHT22;2751;49.802;9.944;2023-07-02T06:40:40;19.30;1.00
5457;DHT22;2751;49.802;9.944;2023-07-02T06:43:07;19.40;1.00
5457;DHT22;2751;49.802;9.944;2023-07-02T06:45:34;19.40;1.00
5457;DHT22;2751;49.802;9.944;2023-07-02T06:48:02;19.50;1.00
5457;DHT22;2751;49.802;9.944;2023-07-02T06:50:29;19.50;1.00
5457;DHT22;2751;49.802;9.944;2023-07-02T06:52:56;19.50;1.00
5457;DHT22;2751;49.802;9.944;2023-07-02T06:55:23;19.60;1.00
5457;DHT22;2751;49.802;9.944;2023-07-02T06:57:50;19.50;1.00
5457;DHT22;2751;49.802;9.944;2023-07-02T07:00:17;19.80;1.00
5457;DHT22;2751;49.802;9.944;2023-07-02T07:02:44;20.00;1.00
5457;DHT22;2751;49.802;9.944;2023-07-02T07:05:12;20.00;1.00
5457;DHT22;2751;49.802;9.944;2023-07-02T07:07:40;20.10;1.00
5457;DHT22;2751;49.802;9.944;2023-07-02T07:10:08;20.30;1.00
5457;DHT22;2751;49.802;9.944;2023-07-02T07:12:35;20.10;1.00
5457;DHT22;2751;49.802;9.944;2023-07-02T07:15:02;20.00;1.00
5457;DHT22;2751;49.802;9.944;2023-07-02T07:17:29;20.10;1.00
5457;DHT22;2751;49.802;9.944;2023-07-02T07:19:56;20.20;1.00
5457;DHT22;2751;49.802;9.944;2023-07-02T07:22:25;20.10;1.00
5457;DHT22;2751;49.802;9.944;2023-07-02T07:24:52;20.10;1.00
5457;DHT22;2751;49.802;9.944;2023-07-02T07:27:19;20.10;1.00
5457;DHT22;2751;49.802;9.944;2023-07-02T07:29:46;20.10;1.00
5457;DHT22;2751;49.802;9.944;2023-07-02T07:32:12;20.20;1.00
5457;DHT22;2751;49.802;9.944;2023-07-02T07:34:39;20.20;1.00
5457;DHT22;2751;49.802;9.944;2023-07-02T07:37:06;20.20;1.00
5457;DHT22;2751;49.802;9.944;2023-07-02T07:39:35;20.20;1.00
5457;DHT22;2751;49.802;9.944;2023-07-02T07:42:03;20.20;1.00
5457;DHT22;2751;49.802;9.944;2023-07-02T07:44:30;20.10;1.00
5457;DHT22;2751;49.802;9.944;2023-07-02T07:46:57;20.20;1.00
5457;DHT22;2751;49.802;9.944;2023-07-02T07:49:24;20.20;1.00
5457;DHT22;2751;49.802;9.944;2023-07-02T07:51:50;20.10;1.00
5457;DHT22;2751;49.802;9.944;2023-07-02T07:54:17;20.20;1.00
5457;DHT22;2751;49.802;9.944;2023-07-02T07:56:46;20.30;1.00
5457;DHT22;2751;49.802;9.944;2023-07-02T07:59:13;20.50;1.00
5457;DHT22;2751;49.802;9.944;2023-07-02T08:01:40;20.70;1.00
5457;DHT22;2751;49.802;9.944;2023-07-02T08:04:07;20.80;1.00
5457;DHT22;2751;49.802;9.944;2023-07-02T08:06:34;20.90;1.00
5457;DHT22;2751;49.802;9.944;2023-07-02T08:09:01;21.00;1.00
5457;DHT22;2751;49.802;9.944;2023-07-02T08:11:28;21.20;1.00
5457;DHT22;2751;49.802;9.944;2023-07-02T08:13:57;21.20;1.00
5457;DHT22;2751;49.802;9.944;2023-07-02T08:16:24;21.30;1.00
5457;DHT22;2751;49.802;9.944;2023-07-02T08:18:50;21.10;1.00
5457;DHT22;2751;49.802;9.944;2023-07-02T08:21:18;20.60;1.00
5457;DHT22;2751;49.802;9.944;2023-07-02T08:23:44;21.00;1.00
5457;DHT22;2751;49.802;9.944;2023-07-02T08:26:11;21.10;1.00
5457;DHT22;2751;49.802;9.944;2023-07-02T08:28:40;21.40;1.00
5457;DHT22;2751;49.802;9.944;2023-07-02T08:31:08;21.70;1.00
5457;DHT22;2751;49.802;9.944;2023-07-02T08:33:35;21.80;1.00
5457;DHT22;2751;49.802;9.944;2023-07-02T08:36:02;21.80;1.00
5457;DHT22;2751;49.802;9.944;2023-07-02T08:38:29;21.90;99.90
5457;DHT22;2751;49.802;9.944;2023-07-02T08:40:56;21.80;1.00
5457;DHT22;2751;49.802;9.944;2023-07-02T08:43:26;21.40;1.00
5457;DHT22;2751;49.802;9.944;2023-07-02T08:45:53;21.40;1.00
5457;DHT22;2751;49.802;9.944;2023-07-02T08:48:22;21.40;99.90
5457;DHT22;2751;49.802;9.944;2023-07-02T08:50:49;21.50;1.00
5457;DHT22;2751;49.802;9.944;2023-07-02T08:53:17;22.40;99.90
5457;DHT22;2751;49.802;9.944;2023-07-02T08:55:44;23.10;99.90
5457;DHT22;2751;49.802;9.944;2023-07-02T08:58:11;23.50;1.00
5457;DHT22;2751;49.802;9.944;2023-07-02T09:00:38;23.50;99.90
5457;DHT22;2751;49.802;9.944;2023-07-02T09:03:12;23.80;1.00
5457;DHT22;2751;49.802;9.944;2023-07-02T09:05:49;23.80;99.90
5457;DHT22;2751;49.802;9.944;2023-07-02T09:08:23;23.80;1.00
5457;DHT22;2751;49.802;9.944;2023-07-02T09:10:50;24.00;1.00
5457;DHT22;2751;49.802;9.944;2023-07-02T09:13:17;24.80;99.90
5457;DHT22;2751;49.802;9.944;2023-07-02T09:15:44;24.30;1.00
5457;DHT22;2751;49.802;9.944;2023-07-02T09:18:18;24.60;99.90
5457;DHT22;2751;49.802;9.944;2023-07-02T09:20:51;24.60;1.00
5457;DHT22;2751;49.802;9.944;2023-07-02T09:23:20;25.30;1.00
5457;DHT22;2751;49.802;9.944;2023-07-02T09:25:47;25.10;96.10
5457;DHT22;2751;49.802;9.944;2023-07-02T09:28:15;24.50;1.00
5457;DHT22;2751;49.802;9.944;2023-07-02T09:30:53;23.80;1.00
5457;DHT22;2751;49.802;9.944;2023-07-02T09:33:20;23.50;1.00
5457;DHT22;2751;49.802;9.944;2023-07-02T09:35:47;23.00;1.00
5457;DHT22;2751;49.802;9.944;2023-07-02T09:38:17;24.10;1.00
5457;DHT22;2751;49.802;9.944;2023-07-02T09:40:46;24.70;99.90
5457;DHT22;2751;49.802;9.944;2023-07-02T09:43:13;24.80;1.00
5457;DHT22;2751;49.802;9.944;2023-07-02T09:45:43;25.10;99.90
5457;DHT22;2751;49.802;9.944;2023-07-02T09:48:12;26.20;1.00
5457;DHT22;2751;49.802;9.944;2023-07-02T09:50:40;27.60;1.00
5457;DHT22;2751;49.802;9.944;2023-07-02T09:53:08;28.50;1.00
5457;DHT22;2751;49.802;9.944;2023-07-02T09:55:36;27.00;1.00
5457;DHT22;2751;49.802;9.944;2023-07-02T09:58:03;25.70;1.00
5457;DHT22;2751;49.802;9.944;2023-07-02T10:00:30;24.70;1.00
5457;DHT22;2751;49.802;9.944;2023-07-02T10:02:57;23.80;1.00
5457;DHT22;2751;49.802;9.944;2023-07-02T10:05:26;23.50;1.00
5457;DHT22;2751;49.802;9.944;2023-07-02T10:07:53;23.00;1.00
5457;DHT22;2751;49.802;9.944;2023-07-02T10:10:28;22.80;1.00
5457;DHT22;2751;49.802;9.944;2023-07-02T10:12:57;25.10;1.00
5457;DHT22;2751;49.802;9.944;2023-07-02T10:15:25;26.30;99.90
5457;DHT22;2751;49.802;9.944;2023-07-02T10:17:56;26.30;1.00
5457;DHT22;2751;49.802;9.944;2023-07-02T10:20:34;25.50;1.00
5457;DHT22;2751;49.802;9.944;2023-07-02T10:23:02;25.10;1.00
5457;DHT22;2751;49.802;9.944;2023-07-02T10:25:30;26.10;1.00
5457;DHT22;2751;49.802;9.944;2023-07-02T10:27:59;26.80;1.00
5457;DHT22;2751;49.802;9.944;2023-07-02T10:30:33;27.00;42.00
5457;DHT22;2751;49.802;9.944;2023-07-02T10:33:08;26.70;1.00
5457;DHT22;2751;49.802;9.944;2023-07-02T10:35:35;25.10;1.00
5457;DHT22;2751;49.802;9.944;2023-07-02T10:38:03;24.20;1.00
5457;DHT22;2751;49.802;9.944;2023-07-02T10:40:32;23.90;1.00
5457;DHT22;2751;49.802;9.944;2023-07-02T10:43:00;23.50;1.00
5457;DHT22;2751;49.802;9.944;2023-07-02T10:45:34;25.30;1.00
5457;DHT22;2751;49.802;9.944;2023-07-02T10:48:02;27.60;1.00
5457;DHT22;2751;49.802;9.944;2023-07-02T10:50:31;28.90;1.00
5457;DHT22;2751;49.802;9.944;2023-07-02T10:52:58;28.60;1.00
5457;DHT22;2751;49.802;9.944;2023-07-02T10:55:26;27.90;1.00
5457;DHT22;2751;49.802;9.944;2023-07-02T10:58:04;27.70;1.00
5457;DHT22;2751;49.802;9.944;2023-07-02T11:00:32;26.10;1.00
5457;DHT22;2751;49.802;9.944;2023-07-02T11:02:59;25.20;1.00
5457;DHT22;2751;49.802;9.944;2023-07-02T11:05:26;25.70;1.00
5457;DHT22;2751;49.802;9.944;2023-07-02T11:07:53;25.40;1.00
5457;DHT22;2751;49.802;9.944;2023-07-02T11:10:23;25.20;1.00
5457;DHT22;2751;49.802;9.944;2023-07-02T11:12:50;26.60;1.00
5457;DHT22;2751;49.802;9.944;2023-07-02T11:15:19;27.40;1.00
5457;DHT22;2751;49.802;9.944;2023-07-02T11:17:46;27.50;1.00
5457;DHT22;2751;49.802;9.944;2023-07-02T11:20:13;27.30;1.00
5457;DHT22;2751;49.802;9.944;2023-07-02T11:22:41;27.20;1.00
5457;DHT22;2751;49.802;9.944;2023-07-02T11:25:12;27.80;1.00
5457;DHT22;2751;49.802;9.944;2023-07-02T11:27:39;26.70;1.00
5457;DHT22;2751;49.802;9.944;2023-07-02T11:30:07;25.80;1.00
5457;DHT22;2751;49.802;9.944;2023-07-02T11:32:47;25.20;1.00
5457;DHT22;2751;49.802;9.944;2023-07-02T11:35:15;24.90;1.00
5457;DHT22;2751;49.802;9.944;2023-07-02T11:37:42;24.70;1.00
5457;DHT22;2751;49.802;9.944;2023-07-02T11:40:10;26.40;1.00
5457;DHT22;2751;49.802;9.944;2023-07-02T11:42:37;28.40;1.00
5457;DHT22;2751;49.802;9.944;2023-07-02T11:45:05;28.90;1.00
5457;DHT22;2751;49.802;9.944;2023-07-02T11:47:32;28.10;1.00
5457;DHT22;2751;49.802;9.944;2023-07-02T11:50:00;29.50;1.00
5457;DHT22;2751;49.802;9.944;2023-07-02T11:52:27;29.10;1.00
5457;DHT22;2751;49.802;9.944;2023-07-02T11:54:54;27.90;1.00
5457;DHT22;2751;49.802;9.944;2023-07-02T11:57:21;26.70;1.00
5457;DHT22;2751;49.802;9.944;2023-07-02T11:59:48;26.90;1.00
5457;DHT22;2751;49.802;9.944;2023-07-02T12:02:16;27.60;1.00
5457;DHT22;2751;49.802;9.944;2023-07-02T12:04:42;27.30;1.00
5457;DHT22;2751;49.802;9.944;2023-07-02T12:07:11;26.30;1.00
5457;DHT22;2751;49.802;9.944;2023-07-02T12:09:39;25.60;1.00
5457;DHT22;2751;49.802;9.944;2023-07-02T12:12:07;25.50;1.00
5457;DHT22;2751;49.802;9.944;2023-07-02T12:14:34;25.50;99.90
5457;DHT22;2751;49.802;9.944;2023-07-02T12:17:01;26.00;1.00
5457;DHT22;2751;49.802;9.944;2023-07-02T12:19:27;26.60;1.00
5457;DHT22;2751;49.802;9.944;2023-07-02T12:21:54;26.60;1.00
5457;DHT22;2751;49.802;9.944;2023-07-02T12:24:23;27.40;1.00
5457;DHT22;2751;49.802;9.944;2023-07-02T12:26:49;26.70;1.00
5457;DHT22;2751;49.802;9.944;2023-07-02T12:29:16;25.80;1.00
5457;DHT22;2751;49.802;9.944;2023-07-02T12:31:43;27.90;1.00
5457;DHT22;2751;49.802;9.944;2023-07-02T12:34:10;28.60;1.00
5457;DHT22;2751;49.802;9.944;2023-07-02T12:36:37;27.50;1.00
5457;DHT22;2751;49.802;9.944;2023-07-02T12:39:04;27.10;1.00
5457;DHT22;2751;49.802;9.944;2023-07-02T12:41:33;26.50;1.00
5457;DHT22;2751;49.802;9.944;2023-07-02T12:44:00;26.40;1.00
5457;DHT22;2751;49.802;9.944;2023-07-02T12:46:27;26.10;1.00
5457;DHT22;2751;49.802;9.944;2023-07-02T12:48:54;25.60;1.00
5457;DHT22;2751;49.802;9.944;2023-07-02T12:51:20;25.30;99.90
5457;DHT22;2751;49.802;9.944;2023-07-02T12:53:47;25.00;99.90
5457;DHT22;2751;49.802;9.944;2023-07-02T12:56:14;25.00;99.90
5457;DHT22;2751;49.802;9.944;2023-07-02T12:58:42;25.10;99.90
5457;DHT22;2751;49.802;9.944;2023-07-02T13:01:09;25.10;99.90
5457;DHT22;2751;49.802;9.944;2023-07-02T13:03:37;24.90;99.90
5457;DHT22;2751;49.802;9.944;2023-07-02T13:06:04;25.40;99.90
5457;DHT22;2751;49.802;9.944;2023-07-02T13:08:31;25.90;1.00
5457;DHT22;2751;49.802;9.944;2023-07-02T13:10:58;27.70;1.00
5457;DHT22;2751;49.802;9.944;2023-07-02T13:13:24;28.60;1.00
5457;DHT22;2751;49.802;9.944;2023-07-02T13:15:53;27.60;1.00
5457;DHT22;2751;49.802;9.944;2023-07-02T13:18:20;26.20;1.00
5457;DHT22;2751;49.802;9.944;2023-07-02T13:20:47;26.70;1.00
5457;DHT22;2751;49.802;9.944;2023-07-02T13:23:13;27.20;1.00
5457;DHT22;2751;49.802;9.944;2023-07-02T13:25:40;27.60;1.00
5457;DHT22;2751;49.802;9.944;2023-07-02T13:28:07;27.60;1.00
5457;DHT22;2751;49.802;9.944;2023-07-02T13:30:34;29.00;1.00
5457;DHT22;2751;49.802;9.944;2023-07-02T13:33:02;29.20;1.00
5457;DHT22;2751;49.802;9.944;2023-07-02T13:35:29;28.20;1.00
5457;DHT22;2751;49.802;9.944;2023-07-02T13:37:57;26.90;1.00
5457;DHT22;2751;49.802;9.944;2023-07-02T13:40:25;26.90;1.00
5457;DHT22;2751;49.802;9.944;2023-07-02T13:42:52;28.00;1.00
5457;DHT22;2751;49.802;9.944;2023-07-02T13:45:19;26.80;1.00
5457;DHT22;2751;49.802;9.944;2023-07-02T13:47:46;26.50;1.00
5457;DHT22;2751;49.802;9.944;2023-07-02T13:50:14;27.50;1.00
5457;DHT22;2751;49.802;9.944;2023-07-02T13:52:41;30.10;1.00
5457;DHT22;2751;49.802;9.944;2023-07-02T13:55:08;30.90;1.00
5457;DHT22;2751;49.802;9.944;2023-07-02T13:57:35;30.00;1.00
5457;DHT22;2751;49.802;9.944;2023-07-02T14:00:05;29.00;1.00
5457;DHT22;2751;49.802;9.944;2023-07-02T14:02:35;27.70;1.00
5457;DHT22;2751;49.802;9.944;2023-07-02T14:05:02;29.10;1.00
5457;DHT22;2751;49.802;9.944;2023-07-02T14:07:29;30.00;1.00
5457;DHT22;2751;49.802;9.944;2023-07-02T14:09:56;29.90;1.00
5457;DHT22;2751;49.802;9.944;2023-07-02T14:12:23;29.00;1.00
5457;DHT22;2751;49.802;9.944;2023-07-02T14:14:50;27.50;1.00
5457;DHT22;2751;49.802;9.944;2023-07-02T14:17:18;27.80;1.00
5457;DHT22;2751;49.802;9.944;2023-07-02T14:19:45;27.40;1.00
5457;DHT22;2751;49.802;9.944;2023-07-02T14:22:12;28.40;1.00
5457;DHT22;2751;49.802;9.944;2023-07-02T14:24:39;30.40;1.00
5457;DHT22;2751;49.802;9.944;2023-07-02T14:27:06;29.70;1.00
5457;DHT22;2751;49.802;9.944;2023-07-02T14:29:34;28.20;1.00
5457;DHT22;2751;49.802;9.944;2023-07-02T14:32:01;28.40;1.00
5457;DHT22;2751;49.802;9.944;2023-07-02T14:34:29;27.40;1.00
5457;DHT22;2751;49.802;9.944;2023-07-02T14:36:56;26.60;99.90
5457;DHT22;2751;49.802;9.944;2023-07-02T14:39:23;26.30;99.90
5457;DHT22;2751;49.802;9.944;2023-07-02T14:41:50;27.80;1.00
5457;DHT22;2751;49.802;9.944;2023-07-02T14:44:17;29.70;1.00
5457;DHT22;2751;49.802;9.944;2023-07-02T14:46:44;30.60;1.00
5457;DHT22;2751;49.802;9.944;2023-07-02T14:49:32;31.10;1.00
5457;DHT22;2751;49.802;9.944;2023-07-02T14:51:59;31.90;1.00
5457;DHT22;2751;49.802;9.944;2023-07-02T14:54:26;32.70;1.00
5457;DHT22;2751;49.802;9.944;2023-07-02T14:56:52;31.20;1.00
5457;DHT22;2751;49.802;9.944;2023-07-02T14:59:19;31.30;1.00
5457;DHT22;2751;49.802;9.944;2023-07-02T15:01:46;31.40;1.00
5457;DHT22;2751;49.802;9.944;2023-07-02T15:04:13;31.30;1.00
5457;DHT22;2751;49.802;9.944;2023-07-02T15:06:42;32.10;1.00
5457;DHT22;2751;49.802;9.944;2023-07-02T15:09:08;32.70;1.00
5457;DHT22;2751;49.802;9.944;2023-07-02T15:11:35;32.20;1.00
5457;DHT22;2751;49.802;9.944;2023-07-02T15:14:02;32.50;1.00
5457;DHT22;2751;49.802;9.944;2023-07-02T15:16:29;32.00;1.00
5457;DHT22;2751;49.802;9.944;2023-07-02T15:18:56;31.80;1.00
5457;DHT22;2751;49.802;9.944;2023-07-02T15:21:23;30.80;1.00
5457;DHT22;2751;49.802;9.944;2023-07-02T15:23:51;31.70;1.00
5457;DHT22;2751;49.802;9.944;2023-07-02T15:26:18;31.80;1.00
5457;DHT22;2751;49.802;9.944;2023-07-02T15:28:45;31.50;1.00
5457;DHT22;2751;49.802;9.944;2023-07-02T15:31:12;31.20;1.00
5457;DHT22;2751;49.802;9.944;2023-07-02T15:33:39;31.20;1.00
5457;DHT22;2751;49.802;9.944;2023-07-02T15:36:07;32.00;1.00
5457;DHT22;2751;49.802;9.944;2023-07-02T15:38:35;30.20;1.00
5457;DHT22;2751;49.802;9.944;2023-07-02T15:41:08;28.50;1.00
5457;DHT22;2751;49.802;9.944;2023-07-02T15:43:36;28.60;1.00
5457;DHT22;2751;49.802;9.944;2023-07-02T15:46:03;28.10;1.00
5457;DHT22;2751;49.802;9.944;2023-07-02T15:48:30;28.20;1.00
5457;DHT22;2751;49.802;9.944;2023-07-02T15:50:57;29.20;1.00
5457;DHT22;2751;49.802;9.944;2023-07-02T15:53:24;28.70;1.00
5457;DHT22;2751;49.802;9.944;2023-07-02T15:55:55;28.90;1.00
5457;DHT22;2751;49.802;9.944;2023-07-02T15:58:24;29.50;1.00
5457;DHT22;2751;49.802;9.944;2023-07-02T16:00:52;29.30;1.00
5457;DHT22;2751;49.802;9.944;2023-07-02T16:03:19;29.60;1.00
5457;DHT22;2751;49.802;9.944;2023-07-02T16:05:47;29.90;1.00
5457;DHT22;2751;49.802;9.944;2023-07-02T16:08:14;28.50;1.00
5457;DHT22;2751;49.802;9.944;2023-07-02T16:10:42;28.20;1.00
5457;DHT22;2751;49.802;9.944;2023-07-02T16:13:09;28.70;1.00
5457;DHT22;2751;49.802;9.944;2023-07-02T16:15:39;29.70;1.00
5457;DHT22;2751;49.802;9.944;2023-07-02T16:18:06;30.00;1.00